createdAt,value
2023-03-12T00:01:18.054Z,100470.56
2023-03-12T00:03:45.053Z,100471.19
2023-03-12T00:06:12.587Z,100472.66
2023-03-12T00:08:40.527Z,100475.97
2023-03-12T00:11:10.107Z,100474.38
2023-03-12T00:13:37.028Z,100480.50
2023-03-12T00:16:19.117Z,100482.13
2023-03-12T00:18:51.276Z,100475.84
2023-03-12T00:21:18.981Z,100481.34
2023-03-12T00:23:47.642Z,100481.97
2023-03-12T00:26:14.719Z,100486.66
2023-03-12T00:28:42.510Z,100477.50
2023-03-12T00:31:24.745Z,100483.59
2023-03-12T00:33:51.559Z,100479.72
2023-03-12T00:36:21.382Z,100486.03
2023-03-12T00:38:48.290Z,100487.47
2023-03-12T00:41:15.151Z,100484.38
2023-03-12T00:43:41.965Z,100492.13
2023-03-12T00:46:10.151Z,100489.47
2023-03-12T00:48:37.456Z,100490.50
2023-03-12T00:51:04.918Z,100488.66
2023-03-12T00:53:31.822Z,100484.78
2023-03-12T00:56:01.245Z,100491.09
2023-03-12T00:58:27.984Z,100482.53
2023-03-12T01:00:57.278Z,100476.81
2023-03-12T01:03:24.384Z,100478.63
2023-03-12T01:05:56.437Z,100481.69
2023-03-12T01:08:26.454Z,100476.00
2023-03-12T01:10:53.507Z,100471.34
2023-03-12T01:13:20.624Z,100481.72
2023-03-12T01:15:47.514Z,100470.31
2023-03-12T01:18:14.568Z,100479.25
2023-03-12T01:20:41.584Z,100478.81
2023-03-12T01:23:09.230Z,100477.91
2023-03-12T01:25:36.705Z,100468.28
2023-03-12T01:28:03.573Z,100468.44
2023-03-12T01:30:30.549Z,100468.47
2023-03-12T01:32:57.365Z,100461.78
2023-03-12T01:35:24.986Z,100481.56
2023-03-12T01:37:52.464Z,100475.88
2023-03-12T01:40:21.631Z,100477.88
2023-03-12T01:42:56.712Z,100475.41
2023-03-12T01:46:14.752Z,100478.25
2023-03-12T01:48:49.098Z,100472.34
2023-03-12T01:51:18.126Z,100469.09
2023-03-12T01:53:49.656Z,100463.44
2023-03-12T01:56:19.840Z,100457.91
2023-03-12T01:58:53.140Z,100453.41
2023-03-12T02:01:22.327Z,100444.22
2023-03-12T02:03:53.587Z,100445.03
2023-03-12T02:06:29.573Z,100446.91
2023-03-12T02:08:59.616Z,100437.59
2023-03-12T02:11:26.472Z,100451.09
2023-03-12T02:13:53.484Z,100443.81
2023-03-12T02:16:20.542Z,100450.13
2023-03-12T02:18:50.710Z,100442.97
2023-03-12T02:21:24.934Z,100442.97
2023-03-12T02:24:14.778Z,100434.22
2023-03-12T02:26:42.301Z,100437.22
2023-03-12T02:29:10.679Z,100438.53
2023-03-12T02:31:43.647Z,100426.44
2023-03-12T02:34:10.907Z,100435.78
2023-03-12T02:36:38.024Z,100432.09
2023-03-12T02:39:06.074Z,100430.94
2023-03-12T02:41:36.509Z,100425.91
2023-03-12T02:44:09.446Z,100427.19
2023-03-12T02:46:49.224Z,100427.19
2023-03-12T02:49:18.553Z,100426.44
2023-03-12T02:51:48.974Z,100422.78
2023-03-12T02:54:18.989Z,100418.78
2023-03-12T02:56:46.105Z,100414.31
2023-03-12T02:59:14.595Z,100413.97
2023-03-12T03:01:43.450Z,100416.03
2023-03-12T03:04:11.771Z,100411.38
2023-03-12T03:06:41.424Z,100410.34
2023-03-12T03:09:08.165Z,100408.34
2023-03-12T03:11:35.693Z,100412.41
2023-03-12T03:14:04.711Z,100413.63
2023-03-12T03:16:31.694Z,100409.53
2023-03-12T03:18:59.002Z,100416.25
2023-03-12T03:21:26.259Z,100426.66
2023-03-12T03:23:52.968Z,100423.59
2023-03-12T03:26:22.465Z,100418.59
2023-03-12T03:28:49.470Z,100423.97
2023-03-12T03:31:16.932Z,100412.47
2023-03-12T03:33:44.565Z,100415.88
2023-03-12T03:36:15.034Z,100416.72
2023-03-12T03:38:50.689Z,100425.03
2023-03-12T03:41:19.534Z,100412.66
2023-03-12T03:43:47.085Z,100408.56
2023-03-12T03:46:16.253Z,100422.41
2023-03-12T03:48:46.885Z,100417.09
2023-03-12T03:51:14.374Z,100416.03
2023-03-12T03:53:44.870Z,100417.44
2023-03-12T03:56:17.978Z,100425.78
2023-03-12T03:58:47.991Z,100406.75
2023-03-12T04:01:16.665Z,100413.25
2023-03-12T04:03:44.847Z,100411.81
2023-03-12T04:06:12.295Z,100410.41
2023-03-12T04:08:40.354Z,100414.03
2023-03-12T04:11:14.936Z,100404.44
2023-03-12T04:13:42.911Z,100395.19
2023-03-12T04:16:11.110Z,100399.91
2023-03-12T04:18:38.180Z,100408.19
2023-03-12T04:21:07.715Z,100419.41
2023-03-12T04:23:35.394Z,100411.88
2023-03-12T04:26:02.507Z,100407.16
2023-03-12T04:28:30.121Z,100400.09
2023-03-12T04:31:01.977Z,100403.81
2023-03-12T04:33:37.622Z,100399.72
2023-03-12T04:36:06.675Z,100404.94
2023-03-12T04:38:35.631Z,100410.59
2023-03-12T04:41:06.053Z,100413.78
2023-03-12T04:43:33.954Z,100417.69
2023-03-12T04:46:01.515Z,100416.75
2023-03-12T04:48:29.155Z,100408.94
2023-03-12T04:50:56.481Z,100416.03
2023-03-12T04:53:23.999Z,100410.59
2023-03-12T04:55:51.469Z,100415.44
2023-03-12T04:58:19.299Z,100408.94
2023-03-12T05:00:47.567Z,100409.34
2023-03-12T05:03:15.070Z,100409.38
2023-03-12T05:05:42.700Z,100402.50
2023-03-12T05:08:10.112Z,100404.16
2023-03-12T05:10:38.554Z,100402.16
2023-03-12T05:13:18.128Z,100408.13
2023-03-12T05:15:50.671Z,100400.22
2023-03-12T05:18:20.499Z,100398.22
2023-03-12T05:20:57.315Z,100401.88
2023-03-12T05:23:24.559Z,100397.88
2023-03-12T05:25:51.586Z,100400.41
2023-03-12T05:28:20.126Z,100392.81
2023-03-12T05:30:47.197Z,100393.06
2023-03-12T05:33:14.202Z,100397.03
2023-03-12T05:35:40.936Z,100385.66
2023-03-12T05:38:07.688Z,100399.75
2023-03-12T05:40:34.342Z,100394.47
2023-03-12T05:43:01.106Z,100396.66
2023-03-12T05:45:28.138Z,100394.00
2023-03-12T05:47:58.558Z,100390.97
2023-03-12T05:50:27.549Z,100386.06
2023-03-12T05:52:54.474Z,100386.09
2023-03-12T05:55:21.658Z,100383.28
2023-03-12T05:57:48.567Z,100387.97
2023-03-12T06:00:15.982Z,100387.94
2023-03-12T06:02:50.961Z,100386.75
2023-03-12T06:05:17.785Z,100389.81
2023-03-12T06:07:44.558Z,100397.50
2023-03-12T06:10:11.938Z,100398.28
2023-03-12T06:12:39.031Z,100393.16
2023-03-12T06:15:06.817Z,100397.03
2023-03-12T06:17:33.721Z,100405.63
2023-03-12T06:20:00.488Z,100399.75
2023-03-12T06:22:28.894Z,100389.38
2023-03-12T06:24:55.655Z,100388.97
2023-03-12T06:27:22.369Z,100390.97
2023-03-12T06:29:49.398Z,100390.78
2023-03-12T06:32:16.350Z,100385.09
2023-03-12T06:34:43.101Z,100395.06
2023-03-12T06:37:10.756Z,100393.88
2023-03-12T06:39:37.909Z,100390.19
2023-03-12T06:42:05.587Z,100389.38
2023-03-12T06:44:32.506Z,100380.03
2023-03-12T06:46:59.344Z,100379.00
2023-03-12T06:49:27.439Z,100383.91
2023-03-12T06:51:55.904Z,100387.75
2023-03-12T06:54:22.621Z,100386.31
2023-03-12T06:56:49.405Z,100386.94
2023-03-12T06:59:16.159Z,100386.94
2023-03-12T07:01:43.030Z,100388.13
2023-03-12T07:04:09.664Z,100386.06
2023-03-12T07:06:36.381Z,100383.81
2023-03-12T07:09:05.085Z,100386.88
2023-03-12T07:11:32.214Z,100385.03
2023-03-12T07:13:58.990Z,100383.97
2023-03-12T07:16:25.629Z,100382.66
2023-03-12T07:18:52.704Z,100373.97
2023-03-12T07:21:23.809Z,100381.47
2023-03-12T07:23:51.497Z,100373.25
2023-03-12T07:26:19.061Z,100370.63
2023-03-12T07:28:48.649Z,100381.75
2023-03-12T07:31:15.355Z,100382.56
2023-03-12T07:33:42.274Z,100388.34
2023-03-12T07:36:09.237Z,100380.06
2023-03-12T07:38:36.151Z,100378.72
2023-03-12T07:41:02.935Z,100378.75
2023-03-12T07:43:29.826Z,100362.06
2023-03-12T07:45:57.004Z,100366.34
2023-03-12T07:48:24.152Z,100366.09
2023-03-12T07:50:51.014Z,100367.69
2023-03-12T07:53:20.387Z,100369.78
2023-03-12T07:55:48.385Z,100375.22
2023-03-12T07:58:16.320Z,100380.72
2023-03-12T08:00:43.196Z,100385.41
2023-03-12T08:03:10.433Z,100384.72
2023-03-12T08:05:37.514Z,100390.63
2023-03-12T08:08:04.854Z,100392.63
2023-03-12T08:10:31.854Z,100383.25
2023-03-12T08:13:01.353Z,100402.06
2023-03-12T08:15:28.202Z,100383.78
2023-03-12T08:17:54.956Z,100390.34
2023-03-12T08:20:21.709Z,100394.19
2023-03-12T08:22:48.613Z,100402.06
2023-03-12T08:25:16.245Z,100395.53
2023-03-12T08:27:43.144Z,100398.59
2023-03-12T08:30:10.992Z,100393.53
2023-03-12T08:32:39.021Z,100386.72
2023-03-12T08:35:06.255Z,100375.78
2023-03-12T08:37:33.163Z,100376.69
2023-03-12T08:40:00.494Z,100377.38
2023-03-12T08:42:27.392Z,100381.22
2023-03-12T08:44:54.342Z,100381.50
2023-03-12T08:47:21.147Z,100377.44
2023-03-12T08:49:48.166Z,100378.16
2023-03-12T08:52:15.101Z,100380.22
2023-03-12T08:54:42.134Z,100375.00
2023-03-12T08:57:09.129Z,100373.97
2023-03-12T08:59:36.281Z,100370.53
2023-03-12T09:02:03.338Z,100370.88
2023-03-12T09:04:32.423Z,100380.44
2023-03-12T09:07:01.408Z,100364.56
2023-03-12T09:09:28.208Z,100374.19
2023-03-12T09:11:57.314Z,100367.16
2023-03-12T09:17:11.200Z,100374.06
2023-03-12T09:19:39.844Z,100368.88
2023-03-12T09:22:06.652Z,100368.63
2023-03-12T09:24:33.517Z,100368.50
2023-03-12T09:27:00.338Z,100381.81
2023-03-12T09:29:27.255Z,100371.84
2023-03-12T09:31:54.569Z,100373.00
2023-03-12T09:34:22.868Z,100374.09
2023-03-12T09:36:50.123Z,100388.72
2023-03-12T09:39:17.579Z,100385.03
2023-03-12T09:41:47.857Z,100390.13
2023-03-12T09:44:39.979Z,100395.81
2023-03-12T09:47:19.203Z,100383.81
2023-03-12T09:49:57.324Z,100383.91
2023-03-12T09:52:43.515Z,100377.16
2023-03-12T09:55:16.471Z,100382.75
2023-03-12T09:57:44.970Z,100395.03
2023-03-12T10:00:27.550Z,100389.28
2023-03-12T10:02:58.495Z,100393.56
2023-03-12T10:06:07.014Z,100401.44
2023-03-12T10:08:37.213Z,100401.59
2023-03-12T10:11:15.029Z,100415.00
2023-03-12T10:14:03.917Z,100411.63
2023-03-12T10:16:30.856Z,100414.53
2023-03-12T10:19:00.935Z,100416.91
2023-03-12T10:21:49.489Z,100414.22
2023-03-12T10:24:31.776Z,100412.59
2023-03-12T10:26:59.707Z,100408.13
2023-03-12T10:29:33.144Z,100394.66
2023-03-12T10:32:05.653Z,100399.28
2023-03-12T10:34:43.206Z,100386.13
2023-03-12T10:37:28.445Z,100396.63
2023-03-12T10:39:55.956Z,100389.94
2023-03-12T10:42:25.596Z,100384.00
2023-03-12T10:44:53.794Z,100376.66
2023-03-12T10:47:36.982Z,100389.28
2023-03-12T10:50:24.285Z,100381.06
2023-03-12T10:52:53.547Z,100389.72
2023-03-12T10:55:32.505Z,100395.22
2023-03-12T10:57:59.772Z,100385.25
2023-03-12T11:00:32.826Z,100387.66
2023-03-12T11:03:08.985Z,100394.97
2023-03-12T11:05:52.349Z,100396.56
2023-03-12T11:08:21.999Z,100399.97
2023-03-12T11:10:50.801Z,100404.91
2023-03-12T11:13:35.826Z,100401.75
2023-03-12T11:16:31.530Z,100406.44
2023-03-12T11:19:04.193Z,100401.53
2023-03-12T11:21:37.497Z,100391.63
2023-03-12T11:24:09.113Z,100397.94
2023-03-12T11:26:52.075Z,100404.56
2023-03-12T11:29:33.315Z,100391.72
2023-03-12T11:32:13.349Z,100381.22
2023-03-12T11:34:40.128Z,100389.16
2023-03-12T11:37:21.315Z,100388.84
2023-03-12T11:40:16.458Z,100388.25
2023-03-12T11:43:11.276Z,100381.47
2023-03-12T11:45:47.091Z,100374.84
2023-03-12T11:48:45.074Z,100370.31
2023-03-12T11:51:34.582Z,100370.63
2023-03-12T11:57:08.451Z,100372.31
2023-03-12T11:59:38.095Z,100367.66
2023-03-12T12:02:17.000Z,100371.38
2023-03-12T12:04:53.492Z,100364.41
2023-03-12T12:07:55.676Z,100354.25
2023-03-12T12:10:26.796Z,100344.06
2023-03-12T12:12:59.629Z,100333.00
2023-03-12T12:15:49.088Z,100346.69
2023-03-12T12:18:25.765Z,100346.47
2023-03-12T12:21:08.041Z,100335.53
2023-03-12T12:23:46.920Z,100327.66
2023-03-12T12:26:38.794Z,100323.19
2023-03-12T12:29:25.366Z,100330.41
2023-03-12T12:31:58.097Z,100341.53
2023-03-12T12:34:37.515Z,100331.25
2023-03-12T12:37:22.781Z,100330.38
2023-03-12T12:40:08.956Z,100328.00
2023-03-12T12:42:47.585Z,100340.56
2023-03-12T12:45:17.122Z,100337.59
2023-03-12T12:47:55.468Z,100335.63
2023-03-12T12:50:27.277Z,100330.81
2023-03-12T12:53:13.857Z,100328.00
2023-03-12T12:55:50.407Z,100330.09
2023-03-12T12:58:26.100Z,100332.66
2023-03-12T13:01:01.682Z,100334.09
2023-03-12T13:03:30.888Z,100315.19
2023-03-12T13:06:09.233Z,100309.63
2023-03-12T13:09:22.360Z,100315.97
2023-03-12T13:11:56.711Z,100307.03
2023-03-12T13:14:41.563Z,100293.66
2023-03-12T13:17:39.623Z,100296.44
2023-03-12T13:20:11.226Z,100288.03
2023-03-12T13:22:48.768Z,100284.16
2023-03-12T13:25:15.998Z,100279.28
2023-03-12T13:27:46.152Z,100272.88
2023-03-12T13:30:32.759Z,100264.56
2023-03-12T13:33:02.889Z,100269.56
2023-03-12T13:35:39.500Z,100250.53
2023-03-12T13:38:13.265Z,100244.72
2023-03-12T13:40:55.193Z,100250.75
2023-03-12T13:43:46.790Z,100237.84
2023-03-12T13:46:16.628Z,100252.84
2023-03-12T13:48:48.961Z,100248.06
2023-03-12T13:51:21.851Z,100233.88
2023-03-12T13:53:53.139Z,100232.81
2023-03-12T13:56:26.053Z,100241.53
2023-03-12T13:59:03.453Z,100247.03
2023-03-12T14:01:54.511Z,100235.91
2023-03-12T14:04:25.926Z,100249.66
2023-03-12T14:07:13.463Z,100254.13
2023-03-12T14:10:08.313Z,100255.59
2023-03-12T14:12:50.951Z,100250.66
2023-03-12T14:15:36.550Z,100254.38
2023-03-12T14:18:22.509Z,100249.31
2023-03-12T14:21:00.853Z,100261.22
2023-03-12T14:23:37.118Z,100258.09
2023-03-12T14:26:06.715Z,100261.78
2023-03-12T14:28:41.634Z,100263.69
2023-03-12T14:31:20.067Z,100261.06
2023-03-12T14:34:10.200Z,100255.38
2023-03-12T14:36:47.259Z,100256.22
2023-03-12T14:39:39.708Z,100245.47
2023-03-12T14:42:08.034Z,100255.69
2023-03-12T14:44:39.851Z,100250.97
2023-03-12T14:47:19.956Z,100249.75
2023-03-12T14:49:47.252Z,100249.47
2023-03-12T14:52:21.373Z,100250.31
2023-03-12T14:55:04.226Z,100256.78
2023-03-12T14:57:31.165Z,100253.25
2023-03-12T15:00:00.266Z,100254.88
2023-03-12T15:02:30.139Z,100251.56
2023-03-12T15:05:00.397Z,100243.47
2023-03-12T15:07:31.998Z,100235.38
2023-03-12T15:10:06.167Z,100231.06
2023-03-12T15:12:40.674Z,100243.47
2023-03-12T15:15:29.668Z,100239.41
2023-03-12T15:17:59.786Z,100232.03
2023-03-12T15:20:27.314Z,100230.69
2023-03-12T15:22:57.510Z,100236.19
2023-03-12T15:25:30.521Z,100241.34
2023-03-12T15:28:26.633Z,100243.50
2023-03-12T15:31:10.839Z,100235.56
2023-03-12T15:33:44.685Z,100223.84
2023-03-12T15:36:14.951Z,100218.31
2023-03-12T15:39:12.738Z,100225.06
2023-03-12T15:41:49.109Z,100222.19
2023-03-12T15:44:27.368Z,100219.28
2023-03-12T15:46:58.106Z,100224.97
2023-03-12T15:49:30.166Z,100236.00
2023-03-12T15:52:26.451Z,100235.53
2023-03-12T15:55:15.089Z,100244.44
2023-03-12T15:57:51.252Z,100246.63
2023-03-12T16:00:24.654Z,100240.97
2023-03-12T16:03:08.280Z,100239.88
2023-03-12T16:05:41.218Z,100240.13
2023-03-12T16:08:34.348Z,100229.34
2023-03-12T16:11:01.098Z,100249.50
2023-03-12T16:13:31.374Z,100249.50
2023-03-12T16:16:01.026Z,100250.31
2023-03-12T16:18:32.779Z,100256.28
2023-03-12T16:21:00.265Z,100248.53
2023-03-12T16:23:27.224Z,100260.91
2023-03-12T16:25:56.475Z,100255.31
2023-03-12T16:28:28.780Z,100252.88
2023-03-12T16:30:55.646Z,100256.13
2023-03-12T16:33:24.796Z,100246.44
2023-03-12T16:35:52.692Z,100254.53
2023-03-12T16:38:22.047Z,100256.16
2023-03-12T16:40:53.019Z,100251.59
2023-03-12T16:43:26.758Z,100254.56
2023-03-12T16:45:54.285Z,100249.72
2023-03-12T16:48:24.396Z,100255.41
2023-03-12T16:50:53.972Z,100251.66
2023-03-12T16:53:21.743Z,100267.50
2023-03-12T16:55:53.270Z,100264.03
2023-03-12T16:58:22.025Z,100265.34
2023-03-12T17:00:50.928Z,100269.13
2023-03-12T17:03:42.142Z,100270.75
2023-03-12T17:06:18.825Z,100281.22
2023-03-12T17:08:46.046Z,100282.63
2023-03-12T17:11:17.599Z,100286.63
2023-03-12T17:13:47.331Z,100290.69
2023-03-12T17:16:14.051Z,100297.94
2023-03-12T17:18:41.642Z,100301.75
2023-03-12T17:21:12.390Z,100299.06
2023-03-12T17:23:39.538Z,100307.13
2023-03-12T17:26:07.540Z,100307.13
2023-03-12T17:28:34.254Z,100318.66
2023-03-12T17:31:05.132Z,100320.53
2023-03-12T17:33:34.930Z,100321.88
2023-03-12T17:36:07.748Z,100318.94
2023-03-12T17:38:44.106Z,100324.84
2023-03-12T17:41:25.427Z,100322.41
2023-03-12T17:43:53.898Z,100322.44
2023-03-12T17:46:21.428Z,100328.88
2023-03-12T17:48:50.901Z,100327.03
2023-03-12T17:51:18.076Z,100322.97
2023-03-12T17:53:44.949Z,100322.97
2023-03-12T17:56:12.780Z,100335.31
2023-03-12T17:58:40.074Z,100328.88
2023-03-12T18:01:07.348Z,100347.97
2023-03-12T18:03:34.140Z,100340.47
2023-03-12T18:06:00.908Z,100336.41
2023-03-12T18:08:27.749Z,100339.09
2023-03-12T18:10:55.182Z,100336.97
2023-03-12T18:13:21.922Z,100339.13
2023-03-12T18:15:58.443Z,100338.56
2023-03-12T18:18:26.907Z,100344.47
2023-03-12T18:20:54.254Z,100338.03
2023-03-12T18:23:21.183Z,100336.16
2023-03-12T18:25:48.042Z,100327.28
2023-03-12T18:28:15.403Z,100334.25
2023-03-12T18:30:47.064Z,100327.03
2023-03-12T18:33:14.689Z,100322.72
2023-03-12T18:35:43.550Z,100316.78
2023-03-12T18:38:11.061Z,100317.63
2023-03-12T18:40:38.178Z,100328.06
2023-03-12T18:43:09.246Z,100328.06
2023-03-12T18:45:35.997Z,100329.44
2023-03-12T18:48:03.021Z,100321.91
2023-03-12T18:50:30.190Z,100315.97
2023-03-12T18:52:57.154Z,100325.09
2023-03-12T18:55:26.404Z,100316.50
2023-03-12T18:57:53.160Z,100309.00
2023-03-12T19:00:22.336Z,100325.66
2023-03-12T19:02:49.467Z,100324.03
2023-03-12T19:05:16.787Z,100327.75
2023-03-12T19:07:44.231Z,100321.34
2023-03-12T19:10:14.961Z,100326.13
2023-03-12T19:12:52.121Z,100325.34
2023-03-12T19:15:24.456Z,100331.50
2023-03-12T19:17:51.382Z,100337.94
2023-03-12T19:20:18.494Z,100336.91
2023-03-12T19:22:45.175Z,100343.88
2023-03-12T19:25:12.154Z,100344.72
2023-03-12T19:27:40.261Z,100344.69
2023-03-12T19:30:07.651Z,100344.97
2023-03-12T19:32:43.309Z,100340.16
2023-03-12T19:35:12.612Z,100334.78
2023-03-12T19:37:39.463Z,100334.50
2023-03-12T19:40:07.380Z,100327.81
2023-03-12T19:42:35.396Z,100330.47
2023-03-12T19:45:02.352Z,100333.69
2023-03-12T19:47:29.566Z,100336.88
2023-03-12T19:49:56.355Z,100340.13
2023-03-12T19:52:23.174Z,100341.22
2023-03-12T19:55:03.385Z,100336.91
2023-03-12T19:57:34.761Z,100335.84
2023-03-12T20:00:01.632Z,100333.13
2023-03-12T20:02:49.272Z,100334.22
2023-03-12T20:05:16.206Z,100343.03
2023-03-12T20:07:44.273Z,100329.34
2023-03-12T20:10:12.939Z,100336.91
2023-03-12T20:12:39.760Z,100335.00
2023-03-12T20:15:07.176Z,100335.53
2023-03-12T20:17:33.914Z,100345.72
2023-03-12T20:20:01.464Z,100334.69
2023-03-12T20:22:28.385Z,100340.09
2023-03-12T20:24:55.117Z,100324.78
2023-03-12T20:27:22.001Z,100329.66
2023-03-12T20:29:49.920Z,100338.75
2023-03-12T20:32:18.556Z,100335.81
2023-03-12T20:34:47.801Z,100337.44
2023-03-12T20:37:14.670Z,100320.50
2023-03-12T20:39:41.421Z,100321.84
2023-03-12T20:42:08.171Z,100323.72
2023-03-12T20:44:35.202Z,100319.69
2023-03-12T20:47:01.937Z,100315.94
2023-03-12T20:49:28.777Z,100308.97
2023-03-12T20:51:55.937Z,100317.50
2023-03-12T20:54:22.915Z,100314.56
2023-03-12T20:56:49.697Z,100306.81
2023-03-12T20:59:16.552Z,100305.22
2023-03-12T21:01:43.514Z,100297.13
2023-03-12T21:04:10.451Z,100302.22
2023-03-12T21:06:37.150Z,100299.81
2023-03-12T21:09:06.293Z,100301.41
2023-03-12T21:11:37.120Z,100292.03
2023-03-12T21:14:03.832Z,100292.56
2023-03-12T21:16:31.511Z,100300.34
2023-03-12T21:19:03.255Z,100287.72
2023-03-12T21:21:36.297Z,100299.78
2023-03-12T21:24:03.281Z,100301.94
2023-03-12T21:26:31.109Z,100294.41
2023-03-12T21:28:57.926Z,100300.53
2023-03-12T21:34:33.145Z,100296.41
2023-03-12T21:36:59.983Z,100288.25
2023-03-12T21:39:27.265Z,100288.22
2023-03-12T21:42:00.007Z,100281.25
2023-03-12T21:44:27.664Z,100286.06
2023-03-12T21:46:55.021Z,100274.88
2023-03-12T21:49:24.474Z,100281.38
2023-03-12T21:51:52.726Z,100281.38
2023-03-12T21:54:23.297Z,100269.81
2023-03-12T21:56:50.224Z,100257.19
2023-03-12T21:59:16.870Z,100264.13
2023-03-12T22:01:43.777Z,100263.56
2023-03-12T22:04:16.387Z,100261.94
2023-03-12T22:06:43.511Z,100249.59
2023-03-12T22:09:12.983Z,100250.94
2023-03-12T22:11:40.140Z,100243.19
2023-03-12T22:14:07.289Z,100246.91
2023-03-12T22:16:34.953Z,100247.97
2023-03-12T22:19:05.402Z,100234.28
2023-03-12T22:21:32.505Z,100229.94
2023-03-12T22:24:03.260Z,100225.91
2023-03-12T22:26:31.424Z,100228.59
2023-03-12T22:29:02.694Z,100236.09
2023-03-12T22:31:31.391Z,100233.94
2023-03-12T22:34:05.621Z,100230.19
2023-03-12T22:36:32.681Z,100224.34
2023-03-12T22:39:02.574Z,100230.25
2023-03-12T22:41:32.908Z,100228.66
2023-03-12T22:44:11.316Z,100217.97
2023-03-12T22:46:42.326Z,100224.97
2023-03-12T22:49:13.076Z,100217.50
2023-03-12T22:51:52.285Z,100213.50
2023-03-12T22:54:28.339Z,100209.22
2023-03-12T22:56:58.267Z,100202.00
2023-03-12T22:59:33.096Z,100210.06
2023-03-12T23:02:00.893Z,100201.47
2023-03-12T23:04:34.905Z,100200.41
2023-03-12T23:07:14.586Z,100191.88
2023-03-12T23:09:59.257Z,100190.25
2023-03-12T23:12:39.836Z,100193.47
2023-03-12T23:18:05.640Z,100191.81
2023-03-12T23:20:33.091Z,100199.84
2023-03-12T23:23:00.250Z,100203.06
2023-03-12T23:25:28.118Z,100202.00
2023-03-12T23:27:54.850Z,100197.72
2023-03-12T23:30:21.556Z,100191.06
2023-03-12T23:32:48.385Z,100196.19
2023-03-12T23:35:18.804Z,100188.16
2023-03-12T23:37:49.549Z,100189.78
2023-03-12T23:40:17.179Z,100187.63
2023-03-12T23:42:44.892Z,100181.75
2023-03-12T23:45:12.293Z,100177.72
2023-03-12T23:47:39.039Z,100179.09
2023-03-12T23:50:09.365Z,100169.97
2023-03-12T23:52:36.171Z,100160.59
2023-03-12T23:55:05.497Z,100164.34
2023-03-12T23:57:32.374Z,100157.09
2023-03-12T23:59:59.212Z,100154.97
